Time;durP1;ratioP1;P1;durP2;ratioP2;P2;SDS_P1;SDS_P2;PMS_P1;PMS_P2;Temp;Humidity;BMP_temperature;BMP_pressure;BME280_temperature;BME280_humidity;BME280_pressure;Samples;Min_cycle;Max_cycle;Signal;HPM_P1;HPM_P2
2023/01/27 00:00:25;;;;;;;2.75;2.22;;;19.70;49.30;;;;;;4985382;28;20219;-65
2023/01/27 00:02:51;;;;;;;2.25;2.08;;;19.60;49.10;;;;;;5001860;28;20212;-65
2023/01/27 00:05:17;;;;;;;2.30;2.10;;;19.60;49.10;;;;;;4977453;28;20268;-64
2023/01/27 00:07:44;;;;;;;2.15;2.03;;;19.60;49.10;;;;;;5001394;28;20199;-65
2023/01/27 00:10:17;;;;;;;2.70;2.50;;;19.70;49.30;;;;;;5001754;28;20219;-65
2023/01/27 00:15:32;;;;;;;1.90;1.80;;;19.70;49.20;;;;;;4993683;28;20222;-65
2023/01/27 00:17:58;;;;;;;1.88;1.77;;;19.70;49.20;;;;;;5002536;28;20228;-65
2023/01/27 00:26:09;;;;;;;2.03;1.90;;;19.60;49.10;;;;;;5004504;28;20188;-65
2023/01/27 00:28:37;;;;;;;1.95;1.80;;;19.60;49.10;;;;;;4977382;28;20185;-65
2023/01/27 00:31:04;;;;;;;1.80;1.70;;;19.70;49.20;;;;;;4976129;28;20197;-65
2023/01/27 00:33:30;;;;;;;2.45;2.10;;;19.60;49.10;;;;;;5000875;28;20215;-65
2023/01/27 00:36:04;;;;;;;2.05;1.90;;;19.60;49.10;;;;;;4992816;28;20388;-65
2023/01/27 00:38:39;;;;;;;1.90;1.80;;;19.70;49.20;;;;;;4986395;28;20227;-65
2023/01/27 00:41:18;;;;;;;2.08;1.83;;;19.60;49.10;;;;;;4995092;28;20184;-65
2023/01/27 00:43:52;;;;;;;2.08;1.88;;;19.70;49.20;;;;;;4999390;28;20220;-65
2023/01/27 00:46:20;;;;;;;2.20;2.00;;;19.70;49.20;;;;;;4984810;28;20186;-65
2023/01/27 00:48:46;;;;;;;2.30;2.05;;;19.60;49.10;;;;;;5005698;28;20184;-65
2023/01/27 00:51:12;;;;;;;1.98;1.77;;;19.60;49.10;;;;;;4995730;28;20195;-65
2023/01/27 00:53:39;;;;;;;1.77;1.67;;;19.60;49.10;;;;;;4992367;28;20205;-65
2023/01/27 00:56:06;;;;;;;1.90;1.80;;;19.60;49.10;;;;;;5000659;28;20200;-65
2023/01/27 00:58:32;;;;;;;2.33;1.70;;;19.60;49.10;;;;;;4987098;28;20301;-65
2023/01/27 01:01:01;;;;;;;1.90;1.80;;;19.60;49.10;;;;;;4987434;28;20279;-65
2023/01/27 01:03:32;;;;;;;1.80;1.70;;;19.60;49.10;;;;;;5001392;28;20206;-65
2023/01/27 01:06:05;;;;;;;1.60;1.50;;;19.60;49.10;;;;;;5000700;28;20247;-64
2023/01/27 01:08:33;;;;;;;1.88;1.75;;;19.60;49.10;;;;;;4992576;28;20185;-65
2023/01/27 01:11:03;;;;;;;2.35;2.15;;;19.60;49.10;;;;;;4999309;28;20243;-65
2023/01/27 01:13:29;;;;;;;1.98;1.77;;;19.60;49.10;;;;;;4984676;28;20220;-65
2023/01/27 01:15:56;;;;;;;2.25;2.05;;;19.60;49.10;;;;;;5000381;28;20212;-65
2023/01/27 01:18:23;;;;;;;1.73;1.60;;;19.60;49.10;;;;;;4993278;28;20218;-65
2023/01/27 01:20:48;;;;;;;2.28;1.63;;;19.60;49.10;;;;;;5003380;28;20188;-65
2023/01/27 01:23:15;;;;;;;1.77;1.67;;;19.60;49.40;;;;;;4995324;28;20208;-65
2023/01/27 01:25:41;;;;;;;1.73;1.58;;;19.60;49.10;;;;;;5012840;28;20176;-65
2023/01/27 01:28:08;;;;;;;2.13;1.80;;;19.60;49.10;;;;;;4984405;28;20200;-65
2023/01/27 01:30:37;;;;;;;1.40;1.30;;;19.60;49.10;;;;;;4978851;28;20200;-66
2023/01/27 01:33:04;;;;;;;2.55;1.73;;;19.60;49.10;;;;;;4987286;28;20204;-65
2023/01/27 01:35:30;;;;;;;1.60;1.50;;;19.60;49.10;;;;;;5008874;28;20199;-65
2023/01/27 01:37:57;;;;;;;1.75;1.65;;;19.60;49.00;;;;;;4975723;28;20187;-65
2023/01/27 01:40:24;;;;;;;1.75;1.65;;;19.60;49.10;;;;;;5001301;28;20219;-65
2023/01/27 01:42:52;;;;;;;1.70;1.60;;;19.60;49.00;;;;;;5002973;28;20212;-64
2023/01/27 01:45:30;;;;;;;1.77;1.67;;;19.60;49.10;;;;;;4978024;28;20280;-65
2023/01/27 01:47:59;;;;;;;1.52;1.42;;;19.60;49.70;;;;;;4991710;28;20220;-65
2023/01/27 01:50:25;;;;;;;2.53;1.70;;;19.60;49.10;;;;;;4975172;28;20651;-64
2023/01/27 01:52:53;;;;;;;2.05;1.90;;;19.60;49.10;;;;;;4975287;28;20209;-65
2023/01/27 01:55:20;;;;;;;1.95;1.85;;;19.60;49.10;;;;;;5007961;28;20187;-64
2023/01/27 01:57:46;;;;;;;1.85;1.75;;;19.60;49.10;;;;;;4991814;28;20189;-65
2023/01/27 02:00:12;;;;;;;1.70;1.60;;;19.60;49.10;;;;;;4999612;28;20209;-65
2023/01/27 02:02:49;;;;;;;1.90;1.80;;;19.60;49.10;;;;;;4988399;28;20200;-65
2023/01/27 02:05:28;;;;;;;1.77;1.65;;;19.60;49.10;;;;;;5010784;28;20186;-65
2023/01/27 02:08:18;;;;;;;2.10;1.90;;;19.60;49.10;;;;;;4975324;28;20191;-64
2023/01/27 02:10:45;;;;;;;1.83;1.73;;;19.60;49.10;;;;;;4999388;28;20204;-65
2023/01/27 02:13:11;;;;;;;1.60;1.50;;;19.60;49.10;;;;;;4991274;28;20209;-65
2023/01/27 02:15:38;;;;;;;1.58;1.48;;;19.60;49.10;;;;;;5007468;28;20189;-65
2023/01/27 02:18:05;;;;;;;1.60;1.50;;;19.60;49.00;;;;;;4999489;28;20251;-65
2023/01/27 02:20:50;;;;;;;1.55;1.45;;;19.50;49.00;;;;;;4999368;28;20242;-65
2023/01/27 02:23:43;;;;;;;1.95;1.85;;;19.60;49.10;;;;;;5000750;28;20203;-65
2023/01/27 02:26:28;;;;;;;1.70;1.60;;;19.50;49.00;;;;;;4986895;28;20192;-65
2023/01/27 02:29:10;;;;;;;1.70;1.60;;;19.50;49.00;;;;;;4993256;28;20189;-64
2023/01/27 02:31:37;;;;;;;1.58;1.48;;;19.60;49.10;;;;;;4993463;28;20199;-65
2023/01/27 02:34:07;;;;;;;1.50;1.40;;;19.60;49.00;;;;;;4994700;28;20185;-65
2023/01/27 02:36:46;;;;;;;1.65;1.55;;;19.60;49.00;;;;;;4993863;28;20185;-64
2023/01/27 02:39:17;;;;;;;1.63;1.52;;;19.50;49.00;;;;;;5002576;28;20251;-65
2023/01/27 02:41:53;;;;;;;1.60;1.50;;;19.50;49.00;;;;;;4994610;28;20207;-65
2023/01/27 02:44:19;;;;;;;1.73;1.63;;;19.60;49.00;;;;;;4975538;28;20182;-65
2023/01/27 02:46:46;;;;;;;1.60;1.50;;;19.50;48.90;;;;;;4982492;28;20193;-65
2023/01/27 02:49:12;;;;;;;1.77;1.60;;;19.50;49.00;;;;;;4990447;28;20593;-65
2023/01/27 02:51:39;;;;;;;1.50;1.40;;;19.50;48.90;;;;;;4999163;28;20230;-65
2023/01/27 02:54:06;;;;;;;1.70;1.60;;;19.50;49.00;;;;;;4981664;28;20184;-65
2023/01/27 02:56:32;;;;;;;1.85;1.75;;;19.50;49.00;;;;;;5000286;28;20188;-65
2023/01/27 02:58:58;;;;;;;1.80;1.70;;;19.50;48.90;;;;;;4998962;28;20220;-65
2023/01/27 03:01:32;;;;;;;1.67;1.58;;;19.50;48.90;;;;;;4999203;28;20552;-64
2023/01/27 03:03:59;;;;;;;1.40;1.30;;;19.50;48.90;;;;;;4988755;28;20190;-66
2023/01/27 03:06:25;;;;;;;1.83;1.40;;;19.50;49.00;;;;;;5004994;28;20266;-65
2023/01/27 03:08:50;;;;;;;1.58;1.50;;;19.50;48.90;;;;;;4994536;28;20243;-64
2023/01/27 03:12:18;;;;;;;1.60;1.50;;;19.50;48.90;;;;;;4986483;28;20191;-65
2023/01/27 03:14:07;;;;;;;1.70;1.60;;;19.50;48.80;;;;;;4989497;28;20189;-65
2023/01/27 03:19:17;;;;;;;1.65;1.55;;;19.50;48.90;;;;;;4994242;28;20205;-65
2023/01/27 03:21:44;;;;;;;1.50;1.40;;;19.50;48.80;;;;;;4994505;28;20263;-65
2023/01/27 03:24:10;;;;;;;1.60;1.50;;;19.50;49.20;;;;;;4986305;28;20185;-65
2023/01/27 03:26:39;;;;;;;1.60;1.50;;;19.50;49.00;;;;;;4996710;28;20195;-65
2023/01/27 03:31:51;;;;;;;2.00;1.70;;;19.50;48.80;;;;;;4994827;28;20292;-65
2023/01/27 03:34:18;;;;;;;1.48;1.38;;;19.50;48.90;;;;;;5002091;28;20220;-65
2023/01/27 03:47:44;;;;;;;2.35;1.50;;;19.50;48.80;;;;;;4997142;28;20184;-65
2023/01/27 03:50:12;;;;;;;1.50;1.40;;;19.50;48.80;;;;;;4981866;28;20575;-64
2023/01/27 03:52:39;;;;;;;1.50;1.40;;;19.50;48.80;;;;;;4984723;28;20230;-64
2023/01/27 03:55:08;;;;;;;2.22;1.70;;;19.50;48.80;;;;;;4999422;28;20223;-65
2023/01/27 03:57:36;;;;;;;1.38;1.27;;;19.50;48.80;;;;;;4980834;28;20200;-65
2023/01/27 04:00:04;;;;;;;1.55;1.45;;;19.50;48.80;;;;;;5004924;28;20212;-65
2023/01/27 04:08:07;;;;;;;1.23;1.13;;;19.50;48.90;;;;;;5006064;28;20191;-65
2023/01/27 04:10:32;;;;;;;1.55;1.45;;;19.50;48.80;;;;;;4980234;28;20197;-65
2023/01/27 04:12:58;;;;;;;1.70;1.60;;;19.50;48.90;;;;;;5012721;28;20685;-65
2023/01/27 04:15:24;;;;;;;1.30;1.20;;;19.50;48.80;;;;;;5004275;28;20279;-65
2023/01/27 04:17:49;;;;;;;1.58;1.48;;;19.50;48.90;;;;;;5008138;28;20320;-65
2023/01/27 04:20:15;;;;;;;1.42;1.33;;;19.50;48.80;;;;;;5001184;28;20213;-65
2023/01/27 04:22:41;;;;;;;1.40;1.30;;;19.50;48.80;;;;;;5009640;28;20209;-65
2023/01/27 04:25:07;;;;;;;1.80;1.70;;;19.50;48.80;;;;;;5001239;28;20276;-65
2023/01/27 04:27:33;;;;;;;1.35;1.25;;;19.50;48.80;;;;;;4986436;28;20650;-65
2023/01/27 04:29:59;;;;;;;1.52;1.42;;;19.50;48.80;;;;;;5012341;28;20210;-65
2023/01/27 04:32:26;;;;;;;1.70;1.60;;;19.40;48.70;;;;;;5005398;28;20211;-65
2023/01/27 04:34:53;;;;;;;1.45;1.35;;;19.40;48.70;;;;;;5000305;28;20196;-65
2023/01/27 04:37:18;;;;;;;1.40;1.30;;;19.40;48.70;;;;;;5008623;28;20192;-65
2023/01/27 04:39:44;;;;;;;1.67;1.45;;;19.40;48.70;;;;;;4985149;28;20216;-65
2023/01/27 04:42:10;;;;;;;1.55;1.45;;;19.40;48.70;;;;;;5001763;28;20236;-65
2023/01/27 04:44:36;;;;;;;1.60;1.50;;;19.50;48.80;;;;;;4994800;28;20238;-65
2023/01/27 04:47:02;;;;;;;1.60;1.45;;;19.40;48.70;;;;;;5006962;28;20215;-65
2023/01/27 04:49:27;;;;;;;1.58;1.48;;;19.50;48.80;;;;;;5001465;28;20193;-65
2023/01/27 04:51:54;;;;;;;1.85;1.40;;;19.40;48.70;;;;;;4996679;28;20209;-65
2023/01/27 04:54:20;;;;;;;1.80;1.70;;;19.50;48.80;;;;;;4988784;28;20601;-65
2023/01/27 04:57:04;;;;;;;1.58;1.48;;;19.40;48.70;;;;;;4984708;28;20193;-65
2023/01/27 04:59:30;;;;;;;1.85;1.75;;;19.50;48.80;;;;;;4991885;28;20220;-65
2023/01/27 05:01:55;;;;;;;1.50;1.40;;;19.40;48.70;;;;;;4985294;28;20205;-65
2023/01/27 05:04:22;;;;;;;1.70;1.60;;;19.40;48.70;;;;;;5001349;28;20180;-65
2023/01/27 05:06:47;;;;;;;1.75;1.65;;;19.40;48.70;;;;;;5000614;28;20188;-65
2023/01/27 05:09:13;;;;;;;1.80;1.70;;;19.40;48.80;;;;;;4982611;28;20235;-65
2023/01/27 05:11:39;;;;;;;1.80;1.70;;;19.40;48.80;;;;;;4995443;28;20189;-65
2023/01/27 05:14:04;;;;;;;1.50;1.40;;;19.50;48.90;;;;;;5006330;28;20197;-65
2023/01/27 05:16:30;;;;;;;1.67;1.58;;;19.40;48.80;;;;;;5000217;28;20196;-65
2023/01/27 05:18:56;;;;;;;2.10;1.83;;;19.40;48.70;;;;;;5005609;28;20212;-64
2023/01/27 05:21:26;;;;;;;1.73;1.63;;;19.40;48.80;;;;;;4987188;28;20186;-65
2023/01/27 05:23:52;;;;;;;1.50;1.40;;;19.50;48.90;;;;;;4984407;28;20188;-65
2023/01/27 05:26:22;;;;;;;1.70;1.60;;;19.40;48.80;;;;;;5000010;28;20185;-65
2023/01/27 05:28:49;;;;;;;1.55;1.45;;;19.40;48.70;;;;;;5002803;28;20192;-64
2023/01/27 05:31:25;;;;;;;2.05;1.85;;;19.40;48.80;;;;;;5011025;28;20188;-65
2023/01/27 05:33:54;;;;;;;1.70;1.60;;;19.40;48.90;;;;;;4975795;28;20184;-65
2023/01/27 05:36:23;;;;;;;1.40;1.30;;;19.40;48.80;;;;;;4975763;28;20193;-64
2023/01/27 05:38:49;;;;;;;1.70;1.60;;;19.40;48.80;;;;;;5000925;28;20239;-64
2023/01/27 05:41:17;;;;;;;1.63;1.52;;;19.50;49.00;;;;;;4983544;28;20196;-65
2023/01/27 05:43:45;;;;;;;1.92;1.83;;;19.40;48.90;;;;;;4991475;28;20231;-65
2023/01/27 05:46:18;;;;;;;1.90;1.80;;;19.40;48.90;;;;;;4999760;28;20185;-65
2023/01/27 05:48:50;;;;;;;1.38;1.27;;;19.40;48.90;;;;;;5026569;23;20237;-71
2023/01/27 05:51:19;;;;;;;1.77;1.67;;;19.40;48.90;;;;;;4989035;28;20193;-72
2023/01/27 05:53:45;;;;;;;1.73;1.63;;;19.40;48.90;;;;;;4993663;28;20575;-72
2023/01/27 05:56:15;;;;;;;1.50;1.40;;;19.40;48.90;;;;;;4969940;28;20193;-71
2023/01/27 05:58:42;;;;;;;1.77;1.55;;;19.40;48.90;;;;;;4968959;28;20347;-71
2023/01/27 06:01:14;;;;;;;1.50;1.40;;;19.40;48.90;;;;;;5004395;28;20185;-71
2023/01/27 06:03:41;;;;;;;1.42;1.33;;;19.40;48.90;;;;;;4999945;28;20679;-71
2023/01/27 06:06:08;;;;;;;1.50;1.40;;;19.40;48.90;;;;;;4994630;28;20716;-72
2023/01/27 06:08:35;;;;;;;1.30;1.20;;;19.40;48.90;;;;;;4992548;28;20276;-71
2023/01/27 06:11:02;;;;;;;1.60;1.50;;;19.40;48.80;;;;;;4969941;28;20189;-71
2023/01/27 06:13:27;;;;;;;1.73;1.60;;;19.40;48.90;;;;;;5010554;28;20235;-71
2023/01/27 06:15:56;;;;;;;1.50;1.40;;;19.40;48.80;;;;;;4981482;28;20197;-70
2023/01/27 06:18:23;;;;;;;1.63;1.52;;;19.40;48.90;;;;;;4988812;28;20215;-71
2023/01/27 06:20:49;;;;;;;1.38;1.27;;;19.40;48.90;;;;;;4977149;28;20197;-70
2023/01/27 06:23:17;;;;;;;1.80;1.70;;;19.40;48.90;;;;;;4993439;28;20196;-70
2023/01/27 06:25:46;;;;;;;1.60;1.50;;;19.40;48.90;;;;;;4974224;28;20738;-71
2023/01/27 06:28:13;;;;;;;1.50;1.40;;;19.40;48.90;;;;;;4988701;28;20221;-71
2023/01/27 06:30:40;;;;;;;1.60;1.50;;;19.40;48.90;;;;;;4989640;28;20189;-71
2023/01/27 06:33:06;;;;;;;1.40;1.30;;;19.40;48.90;;;;;;4992536;28;20188;-71
2023/01/27 06:35:34;;;;;;;1.60;1.50;;;19.40;48.90;;;;;;4999611;28;20194;-71
2023/01/27 06:38:02;;;;;;;1.40;1.30;;;19.40;48.90;;;;;;4985119;28;20209;-71
2023/01/27 06:40:31;;;;;;;1.50;1.40;;;19.30;48.80;;;;;;4992531;28;20220;-71
2023/01/27 06:42:57;;;;;;;1.40;1.30;;;19.40;48.90;;;;;;4972746;28;20200;-71
2023/01/27 06:45:23;;;;;;;1.50;1.40;;;19.40;48.90;;;;;;4981443;28;20243;-70
2023/01/27 06:47:59;;;;;;;1.27;1.25;;;19.40;48.90;;;;;;4980406;28;20231;-71
2023/01/27 06:50:28;;;;;;;1.50;1.40;;;19.30;48.80;;;;;;4995223;28;20279;-71
2023/01/27 06:53:04;;;;;;;1.73;1.50;;;19.30;48.80;;;;;;4996975;28;20200;-70
2023/01/27 06:55:30;;;;;;;1.67;1.50;;;19.30;48.80;;;;;;4998465;28;20243;-70
2023/01/27 06:57:56;;;;;;;1.50;1.35;;;19.30;48.80;;;;;;4988565;28;20224;-70
2023/01/27 07:00:22;;;;;;;1.45;1.35;;;19.30;48.80;;;;;;5005288;28;20280;-70
2023/01/27 07:02:48;;;;;;;1.50;1.40;;;19.30;48.80;;;;;;4992772;28;20193;-71
2023/01/27 07:05:15;;;;;;;1.30;1.20;;;19.30;48.80;;;;;;4998869;28;20216;-71
2023/01/27 07:07:40;;;;;;;1.30;1.20;;;19.30;48.80;;;;;;4995742;28;20271;-70
2023/01/27 07:10:07;;;;;;;1.25;1.17;;;19.30;48.80;;;;;;4967159;28;20186;-71
2023/01/27 07:12:37;;;;;;;1.45;1.35;;;19.30;48.80;;;;;;5008682;28;20259;-71
2023/01/27 07:15:08;;;;;;;1.75;1.65;;;19.30;48.80;;;;;;4972546;28;20662;-70
2023/01/27 07:17:35;;;;;;;1.52;1.42;;;19.30;48.80;;;;;;5011363;28;20223;-70
2023/01/27 07:20:01;;;;;;;1.48;1.38;;;19.30;48.80;;;;;;4988447;28;20220;-70
2023/01/27 07:22:27;;;;;;;1.63;1.52;;;19.40;48.90;;;;;;4995568;28;20185;-70
2023/01/27 07:24:54;;;;;;;1.27;1.17;;;19.30;48.80;;;;;;4987692;28;20220;-70
2023/01/27 07:27:24;;;;;;;1.70;1.60;;;19.40;48.90;;;;;;4978675;28;20212;-71
2023/01/27 07:29:50;;;;;;;1.70;1.60;;;19.30;48.90;;;;;;4977847;28;20197;-71
2023/01/27 07:32:16;;;;;;;1.63;1.52;;;19.30;48.80;;;;;;5022649;28;20192;-71
2023/01/27 07:34:42;;;;;;;1.35;1.25;;;19.30;48.80;;;;;;4979828;28;20273;-71
2023/01/27 07:37:08;;;;;;;1.60;1.50;;;19.30;48.80;;;;;;4995478;28;20192;-71
2023/01/27 07:39:36;;;;;;;1.58;1.48;;;19.40;48.90;;;;;;4995085;28;20209;-71
2023/01/27 07:42:03;;;;;;;1.30;1.20;;;19.40;48.90;;;;;;4977171;28;20189;-71
2023/01/27 07:44:28;;;;;;;1.60;1.50;;;19.40;48.90;;;;;;4977169;28;20648;-71
2023/01/27 07:46:57;;;;;;;2.25;1.50;;;19.30;48.80;;;;;;4995487;28;20195;-70
2023/01/27 07:49:23;;;;;;;1.50;1.40;;;19.30;48.90;;;;;;5010977;28;20192;-70
2023/01/27 07:51:49;;;;;;;1.70;1.60;;;19.30;48.80;;;;;;4967871;28;20207;-70
2023/01/27 07:54:14;;;;;;;1.45;1.35;;;19.40;48.90;;;;;;4990386;28;20224;-70
2023/01/27 07:56:40;;;;;;;1.50;1.40;;;19.30;48.80;;;;;;4994836;28;20255;-70
2023/01/27 07:59:06;;;;;;;1.45;1.35;;;19.30;48.80;;;;;;4987336;28;20223;-70
2023/01/27 08:01:32;;;;;;;1.83;1.73;;;19.30;48.80;;;;;;4978578;28;20291;-70
2023/01/27 08:03:58;;;;;;;1.90;1.80;;;19.30;48.80;;;;;;5010829;28;20184;-71
2023/01/27 08:06:24;;;;;;;1.90;1.80;;;19.30;48.80;;;;;;4975070;28;20264;-71
2023/01/27 08:08:50;;;;;;;2.15;1.95;;;19.30;48.80;;;;;;4975668;28;20282;-71
2023/01/27 08:11:15;;;;;;;1.80;1.70;;;19.30;48.90;;;;;;4974501;28;20186;-70
2023/01/27 08:13:42;;;;;;;1.60;1.50;;;19.30;48.80;;;;;;5008185;28;20220;-70
2023/01/27 08:16:13;;;;;;;1.80;1.70;;;19.30;48.80;;;;;;5027268;28;20184;-70
2023/01/27 08:18:39;;;;;;;2.03;1.80;;;19.30;48.80;;;;;;5002349;28;20209;-70
2023/01/27 08:21:09;;;;;;;1.90;1.80;;;19.30;48.80;;;;;;5003547;28;20181;-70
2023/01/27 08:23:35;;;;;;;1.80;1.70;;;19.30;48.80;;;;;;5003126;28;20193;-71
2023/01/27 08:26:03;;;;;;;2.10;1.98;;;19.40;48.90;;;;;;4977248;28;20193;-71
2023/01/27 08:28:32;;;;;;;1.58;1.48;;;19.30;48.80;;;;;;5007259;28;20259;-71
2023/01/27 08:31:10;;;;;;;1.65;1.55;;;19.30;48.90;;;;;;4991878;28;20651;-71
2023/01/27 08:33:37;;;;;;;1.92;1.77;;;19.30;48.80;;;;;;4991302;28;20631;-71
2023/01/27 08:36:08;;;;;;;1.80;1.70;;;19.30;48.80;;;;;;4970636;28;20252;-72
2023/01/27 08:38:33;;;;;;;1.77;1.58;;;19.30;48.80;;;;;;4961977;28;20219;-71
2023/01/27 08:41:08;;;;;;;1.70;1.60;;;19.30;48.80;;;;;;4980268;28;20205;-71
2023/01/27 08:43:34;;;;;;;2.38;1.83;;;19.30;48.80;;;;;;4994443;28;20192;-71
2023/01/27 08:46:01;;;;;;;1.98;1.88;;;19.30;48.80;;;;;;4958571;28;20190;-71
2023/01/27 08:48:29;;;;;;;1.88;1.77;;;19.30;48.80;;;;;;4988939;28;20204;-71
2023/01/27 08:50:55;;;;;;;1.70;1.60;;;19.30;48.80;;;;;;4991193;28;20193;-71
2023/01/27 08:53:22;;;;;;;1.70;1.60;;;19.30;48.80;;;;;;4975351;28;20238;-71
2023/01/27 08:55:48;;;;;;;1.95;1.70;;;19.30;48.80;;;;;;4975753;28;20196;-71
2023/01/27 08:58:14;;;;;;;1.67;1.58;;;19.30;48.80;;;;;;4994861;28;20211;-71
2023/01/27 09:00:40;;;;;;;2.05;1.70;;;19.30;48.80;;;;;;4992808;28;20220;-71
2023/01/27 09:03:06;;;;;;;1.92;1.80;;;19.30;48.80;;;;;;4997866;28;20185;-71
2023/01/27 09:05:34;;;;;;;2.10;1.90;;;19.30;48.80;;;;;;4994350;28;20195;-71
2023/01/27 09:08:00;;;;;;;1.38;1.27;;;19.30;48.80;;;;;;5009909;28;20217;-71
2023/01/27 09:10:26;;;;;;;1.77;1.67;;;19.30;48.70;;;;;;4978033;28;20192;-71
2023/01/27 09:12:52;;;;;;;1.60;1.50;;;19.30;48.70;;;;;;4987883;28;20205;-71
2023/01/27 09:15:18;;;;;;;2.10;1.95;;;19.30;48.80;;;;;;4978634;28;20189;-71
2023/01/27 09:17:43;;;;;;;1.83;1.73;;;19.30;48.80;;;;;;5021948;28;20221;-71
2023/01/27 09:20:10;;;;;;;1.63;1.52;;;19.30;48.80;;;;;;4984110;28;20215;-71
2023/01/27 09:22:39;;;;;;;1.73;1.63;;;19.30;48.80;;;;;;4992694;28;20213;-70
2023/01/27 09:25:07;;;;;;;1.60;1.50;;;19.30;48.80;;;;;;5000856;28;20226;-70
2023/01/27 09:27:33;;;;;;;1.83;1.73;;;19.30;48.80;;;;;;4991129;28;20213;-71
2023/01/27 09:29:59;;;;;;;1.60;1.50;;;19.30;48.80;;;;;;4993955;28;20201;-71
2023/01/27 09:32:24;;;;;;;1.60;1.50;;;19.30;48.80;;;;;;5019773;28;20185;-70
2023/01/27 09:34:50;;;;;;;1.40;1.30;;;19.30;48.80;;;;;;4977846;28;20193;-70
2023/01/27 09:37:16;;;;;;;1.65;1.55;;;19.30;48.80;;;;;;4981082;28;20276;-70
2023/01/27 09:39:54;;;;;;;1.80;1.70;;;19.30;48.80;;;;;;4978694;28;20240;-70
2023/01/27 09:42:45;;;;;;;1.55;1.45;;;19.30;48.80;;;;;;4997547;28;20239;-70
2023/01/27 09:45:36;;;;;;;2.75;1.90;;;19.30;48.80;;;;;;5004824;28;20271;-70
2023/01/27 09:49:03;;;;;;;1.65;1.55;;;19.30;48.80;;;;;;4960318;28;20209;-70
2023/01/27 09:51:56;;;;;;;2.10;1.90;;;19.30;48.80;;;;;;4959056;28;20702;-70
2023/01/27 09:54:48;;;;;;;2.10;2.00;;;19.30;48.80;;;;;;4959395;28;20216;-70
2023/01/27 09:57:33;;;;;;;1.98;1.88;;;19.30;48.80;;;;;;4993902;28;20690;-70
2023/01/27 10:00:38;;;;;;;1.92;1.80;;;19.30;48.80;;;;;;4992733;28;20228;-70
2023/01/27 10:03:42;;;;;;;2.47;2.08;;;19.30;48.80;;;;;;5004001;28;20677;-70
2023/01/27 10:06:56;;;;;;;2.10;2.00;;;19.20;48.70;;;;;;5004786;28;20188;-70
2023/01/27 10:10:06;;;;;;;2.00;1.90;;;19.30;48.70;;;;;;4971137;28;20196;-70
2023/01/27 10:12:52;;;;;;;1.80;1.70;;;19.30;48.80;;;;;;4973210;28;20280;-70
2023/01/27 10:15:57;;;;;;;2.65;2.40;;;19.30;48.80;;;;;;4985149;28;20298;-70
2023/01/27 10:19:04;;;;;;;2.10;1.90;;;19.30;48.70;;;;;;5033462;28;20222;-70
2023/01/27 10:21:52;;;;;;;2.20;2.10;;;19.30;48.80;;;;;;4983438;28;20205;-70
2023/01/27 10:24:48;;;;;;;1.83;1.73;;;19.30;48.80;;;;;;5000034;28;20224;-70
2023/01/27 10:27:23;;;;;;;1.95;1.85;;;19.30;48.80;;;;;;5000157;28;20228;-70
2023/01/27 10:30:02;;;;;;;2.20;2.00;;;19.30;48.80;;;;;;4998801;28;20260;-70
2023/01/27 10:32:44;;;;;;;2.10;2.00;;;19.30;48.80;;;;;;4996423;28;20182;-71
2023/01/27 10:35:53;;;;;;;2.40;2.20;;;19.30;48.80;;;;;;4984026;28;20192;-71
2023/01/27 10:38:47;;;;;;;2.22;2.03;;;19.20;48.70;;;;;;5009657;28;20244;-71
2023/01/27 10:41:45;;;;;;;1.75;1.65;;;19.30;48.80;;;;;;4987688;28;20277;-71
2023/01/27 10:44:42;;;;;;;1.70;1.60;;;19.30;48.80;;;;;;5016363;28;20224;-71
2023/01/27 10:47:52;;;;;;;2.00;1.90;;;19.30;48.80;;;;;;5016080;28;20200;-70
2023/01/27 10:50:36;;;;;;;1.77;1.65;;;19.30;48.80;;;;;;4988062;28;20185;-70
2023/01/27 10:53:42;;;;;;;1.77;1.67;;;19.30;48.80;;;;;;4971112;28;20215;-70
2023/01/27 10:56:23;;;;;;;2.05;1.90;;;19.30;48.80;;;;;;5012813;28;20189;-70
2023/01/27 10:59:07;;;;;;;1.50;1.40;;;19.30;48.80;;;;;;4980239;28;20226;-70
2023/01/27 11:01:51;;;;;;;2.20;2.00;;;19.30;48.80;;;;;;4995231;28;20344;-70
2023/01/27 11:04:40;;;;;;;1.83;1.73;;;19.30;48.70;;;;;;4990875;28;20186;-70
2023/01/27 11:07:06;;;;;;;2.15;1.98;;;19.20;48.60;;;;;;5000201;28;20185;-70
2023/01/27 11:09:46;;;;;;;1.70;1.60;;;19.20;48.60;;;;;;4984406;28;20212;-70
2023/01/27 11:12:15;;;;;;;2.08;1.88;;;19.20;48.60;;;;;;5000859;28;20259;-70
2023/01/27 11:14:50;;;;;;;1.90;1.80;;;19.20;48.50;;;;;;5032924;28;20228;-70
2023/01/27 11:17:41;;;;;;;1.98;1.88;;;19.20;48.60;;;;;;4998179;28;20243;-70
2023/01/27 11:20:18;;;;;;;1.80;1.70;;;19.30;48.60;;;;;;5003107;28;20237;-70
2023/01/27 11:22:58;;;;;;;1.60;1.50;;;19.20;48.50;;;;;;5002351;28;20192;-70
2023/01/27 11:25:52;;;;;;;2.10;1.98;;;19.20;48.40;;;;;;4990386;28;20196;-70
2023/01/27 11:28:41;;;;;;;1.70;1.60;;;19.20;48.50;;;;;;4980305;28;20216;-70
2023/01/27 11:31:28;;;;;;;2.92;2.08;;;19.20;48.50;;;;;;4971914;28;20190;-70
2023/01/27 11:34:22;;;;;;;1.85;1.75;;;19.20;48.50;;;;;;5010430;28;20204;-70
2023/01/27 11:36:49;;;;;;;1.75;1.65;;;19.20;48.60;;;;;;4974789;28;20694;-71
2023/01/27 11:39:17;;;;;;;2.05;1.95;;;19.20;48.50;;;;;;4993032;28;20212;-70
2023/01/27 11:41:54;;;;;;;2.03;1.83;;;19.20;48.40;;;;;;4990557;28;20197;-71
2023/01/27 11:44:26;;;;;;;2.72;1.85;;;19.20;48.40;;;;;;4971742;28;20297;-71
2023/01/27 11:46:54;;;;;;;2.30;2.10;;;19.20;48.40;;;;;;4985458;28;20193;-71
2023/01/27 11:49:30;;;;;;;2.17;1.98;;;19.20;48.40;;;;;;5052234;23;20232;-65
2023/01/27 11:52:16;;;;;;;2.25;2.05;;;19.20;48.40;;;;;;5016945;28;20295;-65
2023/01/27 11:54:58;;;;;;;2.20;2.00;;;19.20;48.30;;;;;;5019471;28;20187;-66
2023/01/27 11:57:26;;;;;;;1.92;1.83;;;19.20;48.30;;;;;;5005788;28;20275;-65
2023/01/27 12:00:10;;;;;;;2.17;1.98;;;19.20;48.40;;;;;;5018101;28;20218;-65
2023/01/27 12:02:46;;;;;;;1.90;1.80;;;19.20;48.40;;;;;;5017857;28;20188;-65
2023/01/27 12:05:33;;;;;;;2.17;1.98;;;19.20;48.40;;;;;;5018684;28;20242;-65
2023/01/27 12:08:03;;;;;;;2.13;1.92;;;19.20;48.30;;;;;;5000128;28;20226;-65
2023/01/27 12:10:31;;;;;;;1.58;1.48;;;19.20;48.40;;;;;;5015826;28;20195;-65
2023/01/27 12:13:16;;;;;;;1.50;1.40;;;19.20;48.40;;;;;;5020364;28;20187;-65
2023/01/27 12:16:03;;;;;;;2.05;1.95;;;19.20;48.40;;;;;;5016940;28;20192;-64
2023/01/27 12:18:34;;;;;;;2.10;2.00;;;19.20;48.30;;;;;;5006731;28;20294;-65
2023/01/27 12:21:05;;;;;;;1.63;1.52;;;19.20;48.30;;;;;;5015737;28;20716;-65
2023/01/27 12:23:48;;;;;;;2.03;1.92;;;19.20;48.30;;;;;;5022520;28;20286;-65
2023/01/27 12:26:14;;;;;;;1.98;1.85;;;19.20;48.30;;;;;;5004985;28;20219;-64
2023/01/27 12:28:53;;;;;;;1.77;1.67;;;19.20;48.30;;;;;;4996293;28;20612;-65
2023/01/27 12:31:31;;;;;;;1.52;1.42;;;19.20;48.30;;;;;;5006162;28;20184;-65
2023/01/27 12:34:29;;;;;;;2.08;1.70;;;19.20;48.30;;;;;;5012576;28;20184;-65
2023/01/27 12:36:56;;;;;;;2.20;2.00;;;19.20;48.30;;;;;;5009049;28;20665;-66
2023/01/27 12:39:31;;;;;;;2.00;1.90;;;19.20;48.30;;;;;;5019449;28;20262;-66
2023/01/27 12:41:57;;;;;;;1.60;1.50;;;19.20;48.30;;;;;;5011199;28;20188;-65
2023/01/27 12:44:25;;;;;;;1.98;1.85;;;19.20;48.20;;;;;;4992758;28;20259;-65
2023/01/27 12:47:03;;;;;;;1.65;1.55;;;19.20;48.30;;;;;;5014203;28;20220;-66
2023/01/27 12:49:37;;;;;;;1.83;1.73;;;19.20;48.20;;;;;;5007588;28;20282;-65
2023/01/27 12:52:08;;;;;;;1.70;1.60;;;19.20;48.20;;;;;;5009035;28;20197;-65
2023/01/27 12:54:34;;;;;;;1.48;1.30;;;19.20;48.30;;;;;;5012326;28;20196;-64
2023/01/27 12:57:14;;;;;;;1.45;1.35;;;19.20;48.20;;;;;;5017797;28;20194;-66
2023/01/27 12:59:55;;;;;;;1.75;1.65;;;19.20;48.20;;;;;;4999049;28;20306;-65
2023/01/27 13:02:25;;;;;;;1.63;1.52;;;19.20;48.20;;;;;;5007809;28;20188;-65
2023/01/27 13:04:59;;;;;;;1.60;1.50;;;19.20;48.20;;;;;;5015764;28;20180;-65
2023/01/27 13:08:00;;;;;;;1.35;1.25;;;19.20;48.20;;;;;;5005029;28;20188;-65
2023/01/27 13:10:26;;;;;;;1.55;1.45;;;19.20;48.20;;;;;;4990111;28;20214;-65
2023/01/27 13:12:59;;;;;;;1.60;1.50;;;19.20;48.20;;;;;;5023277;28;20188;-65
2023/01/27 13:15:30;;;;;;;1.67;1.58;;;19.20;48.20;;;;;;4995628;28;20203;-65
2023/01/27 13:17:59;;;;;;;1.40;1.30;;;19.20;48.20;;;;;;4995244;28;20212;-65
2023/01/27 13:20:42;;;;;;;1.85;1.70;;;19.20;48.20;;;;;;4995147;28;20219;-65
2023/01/27 13:23:25;;;;;;;1.80;1.70;;;19.30;48.30;;;;;;5011740;28;20199;-65
2023/01/27 13:26:07;;;;;;;1.65;1.55;;;19.20;48.20;;;;;;5011833;28;20188;-65
2023/01/27 13:28:46;;;;;;;1.65;1.55;;;19.20;48.20;;;;;;5011531;28;20208;-66
2023/01/27 13:31:53;;;;;;;1.80;1.70;;;19.20;48.20;;;;;;5010956;28;20202;-65
2023/01/27 13:35:15;;;;;;;1.65;1.55;;;19.20;48.20;;;;;;5015270;28;20283;-65
2023/01/27 13:38:13;;;;;;;1.58;1.48;;;19.20;48.20;;;;;;5022777;28;20302;-65
2023/01/27 13:40:46;;;;;;;1.88;1.77;;;19.20;48.30;;;;;;5005931;28;20254;-65
2023/01/27 13:43:40;;;;;;;1.27;1.20;;;19.20;48.20;;;;;;5011332;28;20291;-65
2023/01/27 13:46:18;;;;;;;2.28;1.63;;;19.20;48.10;;;;;;4995198;28;20188;-65